createdAt,value
2022-09-20T00:01:28.618Z,12.06
2022-09-20T00:03:57.659Z,12.15
2022-09-20T00:06:27.571Z,12.15
2022-09-20T00:08:54.357Z,12.11
2022-09-20T00:11:24.602Z,12.07
2022-09-20T00:13:54.652Z,12.13
2022-09-20T00:16:24.804Z,12.15
2022-09-20T00:18:53.231Z,12.17
2022-09-20T00:21:22.326Z,12.20
2022-09-20T00:23:48.775Z,12.19
2022-09-20T00:26:15.299Z,12.17
2022-09-20T00:28:41.944Z,12.16
2022-09-20T00:31:08.333Z,12.16
2022-09-20T00:33:53.600Z,12.20
2022-09-20T00:36:19.966Z,12.32
2022-09-20T00:38:46.501Z,12.21
2022-09-20T00:41:13.063Z,12.19
2022-09-20T00:43:46.527Z,12.16
2022-09-20T00:46:28.211Z,12.18
2022-09-20T00:49:01.448Z,12.17
2022-09-20T00:51:35.085Z,12.23
2022-09-20T00:54:08.075Z,12.22
2022-09-20T00:56:38.830Z,12.18
2022-09-20T00:59:21.373Z,12.23
2022-09-20T01:01:52.999Z,12.07
2022-09-20T01:04:24.110Z,12.06
2022-09-20T01:06:52.938Z,12.00
2022-09-20T01:09:19.394Z,11.99
2022-09-20T01:11:46.877Z,11.76
2022-09-20T01:14:18.826Z,11.87
2022-09-20T01:16:45.292Z,11.86
2022-09-20T01:19:25.339Z,11.87
2022-09-20T01:21:53.434Z,11.83
2022-09-20T01:24:33.188Z,11.83
2022-09-20T01:27:22.552Z,11.71
2022-09-20T01:30:06.458Z,11.68
2022-09-20T01:33:03.352Z,11.68
2022-09-20T01:35:34.214Z,11.60
2022-09-20T01:38:15.676Z,11.63
2022-09-20T01:41:18.247Z,11.66
2022-09-20T01:43:59.933Z,11.54
2022-09-20T01:46:32.203Z,11.60
2022-09-20T01:49:46.242Z,11.59
2022-09-20T01:52:24.176Z,11.55
2022-09-20T01:55:05.658Z,11.56
2022-09-20T01:58:02.253Z,11.66
2022-09-20T02:00:38.909Z,11.64
2022-09-20T02:03:44.013Z,11.60
2022-09-20T02:06:35.642Z,11.64
2022-09-20T02:09:07.824Z,11.70
2022-09-20T02:11:43.335Z,11.61
2022-09-20T02:14:48.706Z,11.69
2022-09-20T02:17:48.810Z,11.66
2022-09-20T02:20:34.677Z,11.75
2022-09-20T02:23:22.315Z,11.70
2022-09-20T02:26:24.664Z,11.59
2022-09-20T02:29:15.859Z,11.62
2022-09-20T02:31:48.368Z,11.64
2022-09-20T02:35:05.508Z,11.57
2022-09-20T02:37:50.179Z,11.50
2022-09-20T02:40:24.732Z,11.59
2022-09-20T02:43:07.534Z,11.52
2022-09-20T02:45:52.837Z,11.47
2022-09-20T02:48:29.629Z,11.44
2022-09-20T02:51:17.078Z,11.37
2022-09-20T02:53:55.583Z,11.40
2022-09-20T02:56:38.605Z,11.39
2022-09-20T02:59:13.998Z,11.40
2022-09-20T03:01:52.955Z,11.46
2022-09-20T03:05:10.460Z,11.53
2022-09-20T03:07:42.890Z,11.49
2022-09-20T03:10:38.745Z,11.43
2022-09-20T03:13:32.737Z,11.47
2022-09-20T03:16:11.091Z,11.34
2022-09-20T03:19:08.357Z,11.45
2022-09-20T03:21:49.964Z,11.34
2022-09-20T03:24:29.495Z,11.51
2022-09-20T03:27:20.768Z,11.56
2022-09-20T03:30:17.355Z,11.46
2022-09-20T03:33:15.830Z,11.41
2022-09-20T03:36:10.168Z,11.37
2022-09-20T03:38:49.548Z,11.37
2022-09-20T03:41:42.985Z,11.46
2022-09-20T03:44:09.566Z,11.42
2022-09-20T03:46:45.479Z,11.34
2022-09-20T03:49:35.850Z,11.33
2022-09-20T03:52:17.327Z,11.31
2022-09-20T03:55:01.306Z,11.27
2022-09-20T03:58:08.750Z,11.14
2022-09-20T04:01:08.588Z,11.22
2022-09-20T04:03:57.432Z,11.18
2022-09-20T04:06:45.424Z,11.14
2022-09-20T04:09:39.269Z,11.14
2022-09-20T04:12:11.517Z,11.11
2022-09-20T04:14:47.486Z,11.05
2022-09-20T04:17:45.233Z,11.11
2022-09-20T04:20:32.196Z,11.07
2022-09-20T04:23:08.995Z,11.01
2022-09-20T04:25:44.196Z,11.07
2022-09-20T04:28:21.577Z,11.17
2022-09-20T04:30:53.978Z,10.98
2022-09-20T04:33:25.753Z,11.04
2022-09-20T04:36:37.164Z,11.01
2022-09-20T04:39:32.543Z,11.13
2022-09-20T04:42:23.713Z,11.06
2022-09-20T04:45:08.865Z,11.01
2022-09-20T04:47:56.523Z,10.97
2022-09-20T04:50:41.435Z,11.03
2022-09-20T04:53:11.065Z,11.04
2022-09-20T04:55:52.477Z,11.02
2022-09-20T04:58:48.200Z,10.92
2022-09-20T05:01:17.689Z,10.87
2022-09-20T05:03:47.077Z,10.86
2022-09-20T05:06:30.128Z,10.82
2022-09-20T05:09:20.929Z,10.93
2022-09-20T05:12:34.316Z,10.96
2022-09-20T05:15:10.864Z,10.94
2022-09-20T05:17:58.172Z,11.02
2022-09-20T05:20:39.486Z,11.06
2022-09-20T05:23:17.729Z,11.13
2022-09-20T05:25:56.401Z,11.19
2022-09-20T05:28:33.409Z,11.26
2022-09-20T05:31:11.686Z,11.18
2022-09-20T05:33:48.981Z,11.23
2022-09-20T05:36:37.035Z,11.44
2022-09-20T05:39:18.988Z,11.41
2022-09-20T05:42:23.997Z,11.26
2022-09-20T05:45:18.096Z,11.29
2022-09-20T05:47:55.188Z,11.25
2022-09-20T05:50:55.539Z,11.23
2022-09-20T05:54:00.523Z,11.25
2022-09-20T05:56:42.102Z,11.15
2022-09-20T05:59:24.125Z,11.18
2022-09-20T06:01:53.250Z,11.18
2022-09-20T06:04:25.366Z,11.16
2022-09-20T06:07:09.116Z,11.26
2022-09-20T06:10:15.212Z,11.29
2022-09-20T06:12:55.995Z,11.24
2022-09-20T06:15:34.785Z,11.18
2022-09-20T06:18:16.155Z,11.30
2022-09-20T06:21:00.024Z,11.27
2022-09-20T06:23:26.813Z,11.35
2022-09-20T06:25:58.819Z,11.34
2022-09-20T06:28:46.467Z,11.31
2022-09-20T06:31:12.963Z,11.42
2022-09-20T06:33:56.094Z,11.50
2022-09-20T06:36:48.087Z,11.60
2022-09-20T06:39:58.485Z,11.56
2022-09-20T06:42:27.294Z,11.47
2022-09-20T06:44:54.233Z,11.56
2022-09-20T06:47:21.940Z,11.73
2022-09-20T06:49:50.081Z,11.75
2022-09-20T06:52:18.633Z,11.69
2022-09-20T06:54:46.923Z,11.95
2022-09-20T06:57:17.060Z,12.03
2022-09-20T06:59:43.751Z,12.14
2022-09-20T07:02:10.992Z,12.12
2022-09-20T07:04:37.775Z,12.29
2022-09-20T07:07:09.494Z,12.32
2022-09-20T07:09:36.164Z,12.40
2022-09-20T07:12:02.636Z,12.49
2022-09-20T07:14:29.017Z,12.42
2022-09-20T07:16:55.398Z,12.60
2022-09-20T07:19:23.285Z,12.76
2022-09-20T07:21:49.719Z,12.89
2022-09-20T07:24:16.146Z,13.18
2022-09-20T07:26:55.692Z,13.37
2022-09-20T07:29:22.985Z,13.53
2022-09-20T07:31:50.597Z,13.69
2022-09-20T07:34:20.181Z,13.82
2022-09-20T07:36:47.621Z,13.97
2022-09-20T07:39:14.014Z,14.05
2022-09-20T07:41:40.413Z,14.16
2022-09-20T07:44:22.120Z,14.25
2022-09-20T07:46:53.935Z,14.17
2022-09-20T07:49:21.258Z,13.95
2022-09-20T07:51:50.603Z,14.07
2022-09-20T07:54:17.660Z,14.41
2022-09-20T07:56:44.887Z,14.77
2022-09-20T07:59:11.878Z,15.14
2022-09-20T08:01:38.830Z,15.73
2022-09-20T08:04:06.390Z,16.58
2022-09-20T08:06:36.561Z,16.89
2022-09-20T08:09:02.980Z,15.92
2022-09-20T08:11:30.712Z,15.55
2022-09-20T08:14:17.853Z,15.27
2022-09-20T08:16:47.269Z,14.99
2022-09-20T08:19:19.177Z,14.83
2022-09-20T08:21:45.970Z,14.59
2022-09-20T08:24:13.100Z,14.23
2022-09-20T08:26:39.655Z,14.02
2022-09-20T08:29:06.581Z,13.88
2022-09-20T08:31:36.685Z,14.03
2022-09-20T08:34:06.416Z,14.10
2022-09-20T08:36:36.739Z,14.20
2022-09-20T08:41:58.438Z,13.97
2022-09-20T08:44:35.064Z,14.08
2022-09-20T08:47:22.563Z,14.04
2022-09-20T08:49:56.889Z,14.06
2022-09-20T08:52:37.118Z,14.07
2022-09-20T08:55:19.843Z,14.79
2022-09-20T08:57:50.220Z,14.77
2022-09-20T09:00:23.237Z,14.46
2022-09-20T09:02:56.039Z,14.42
2022-09-20T09:05:40.418Z,14.35
2022-09-20T09:08:16.213Z,14.24
2022-09-20T09:10:46.708Z,14.12
2022-09-20T09:13:24.211Z,14.18
2022-09-20T09:16:15.232Z,14.00
2022-09-20T09:18:44.435Z,14.18
2022-09-20T09:21:25.369Z,14.22
2022-09-20T09:24:09.782Z,14.38
2022-09-20T09:26:40.776Z,14.34
2022-09-20T09:29:22.588Z,14.03
2022-09-20T09:31:51.730Z,14.15
2022-09-20T09:34:32.097Z,14.42
2022-09-20T09:36:59.212Z,14.62
2022-09-20T09:39:27.586Z,14.74
2022-09-20T09:41:54.984Z,14.83
2022-09-20T09:44:23.120Z,15.38
2022-09-20T09:46:53.640Z,16.17
2022-09-20T09:49:35.914Z,16.74
2022-09-20T09:52:13.260Z,17.75
2022-09-20T09:54:51.684Z,18.79
2022-09-20T09:57:33.758Z,17.20
2022-09-20T10:00:17.688Z,17.07
2022-09-20T10:03:02.261Z,17.28
2022-09-20T10:05:39.941Z,18.00
2022-09-20T10:08:35.303Z,18.85
2022-09-20T10:11:07.491Z,18.11
2022-09-20T10:13:52.070Z,17.70
2022-09-20T10:16:42.153Z,16.72
2022-09-20T10:19:20.698Z,16.83
2022-09-20T10:22:06.708Z,16.86
2022-09-20T10:25:00.894Z,16.67
2022-09-20T10:27:46.253Z,16.59
2022-09-20T10:30:18.766Z,16.43
2022-09-20T10:33:16.140Z,16.52
2022-09-20T10:35:55.698Z,16.26
2022-09-20T10:38:30.195Z,15.91
2022-09-20T10:41:34.139Z,16.10
2022-09-20T10:44:18.828Z,16.10
2022-09-20T10:47:13.013Z,15.98
2022-09-20T10:49:54.053Z,15.75
2022-09-20T10:52:49.227Z,15.86
2022-09-20T10:55:21.392Z,15.82
2022-09-20T10:57:55.376Z,15.72
2022-09-20T11:00:24.684Z,15.74
2022-09-20T11:03:14.168Z,15.89
2022-09-20T11:05:43.815Z,16.20
2022-09-20T11:08:18.900Z,16.40
2022-09-20T11:10:46.134Z,16.33
2022-09-20T11:13:15.371Z,16.49
2022-09-20T11:15:45.715Z,16.27
2022-09-20T11:18:29.378Z,16.38
2022-09-20T11:21:05.187Z,16.69
2022-09-20T11:23:51.646Z,16.58
2022-09-20T11:26:31.629Z,16.64
2022-09-20T11:29:08.949Z,16.79
2022-09-20T11:31:42.805Z,16.98
2022-09-20T11:34:26.513Z,17.16
2022-09-20T11:36:58.826Z,17.11
2022-09-20T11:39:35.446Z,17.24
2022-09-20T11:42:05.136Z,17.22
2022-09-20T11:44:31.851Z,17.02
2022-09-20T11:47:03.810Z,17.13
2022-09-20T11:50:06.866Z,17.09
2022-09-20T11:52:59.527Z,17.04
2022-09-20T11:55:52.438Z,17.24
2022-09-20T11:58:22.286Z,16.96
2022-09-20T12:00:52.444Z,16.94
2022-09-20T12:03:24.874Z,17.08
2022-09-20T12:06:29.846Z,16.98
2022-09-20T12:08:58.415Z,17.65
2022-09-20T12:11:31.686Z,17.80
2022-09-20T12:14:17.587Z,17.73
2022-09-20T12:16:46.846Z,18.00
2022-09-20T12:19:34.073Z,18.32
2022-09-20T12:22:00.359Z,17.94
2022-09-20T12:24:30.132Z,17.76
2022-09-20T12:27:01.519Z,17.67
2022-09-20T12:29:29.627Z,17.70
2022-09-20T12:31:59.997Z,17.77
2022-09-20T12:34:26.561Z,17.72
2022-09-20T12:36:55.961Z,17.67
2022-09-20T12:39:30.010Z,17.70
2022-09-20T12:41:56.658Z,17.58
2022-09-20T12:44:25.545Z,17.48
2022-09-20T12:47:04.824Z,17.53
2022-09-20T12:50:02.243Z,17.61
2022-09-20T12:52:46.978Z,17.57
2022-09-20T12:55:27.137Z,17.43
2022-09-20T12:58:04.322Z,17.28
2022-09-20T13:00:51.246Z,17.32
2022-09-20T13:03:40.153Z,16.99
2022-09-20T13:06:12.654Z,17.06
2022-09-20T13:09:09.648Z,17.26
2022-09-20T13:11:54.349Z,17.26
2022-09-20T13:14:23.608Z,17.12
2022-09-20T13:16:54.569Z,17.23
2022-09-20T13:19:51.377Z,17.65
2022-09-20T13:22:28.352Z,17.43
2022-09-20T13:25:00.867Z,17.59
2022-09-20T13:27:46.906Z,17.62
2022-09-20T13:30:26.912Z,17.68
2022-09-20T13:32:53.515Z,17.52
2022-09-20T13:35:27.944Z,17.85
2022-09-20T13:38:01.968Z,18.00
2022-09-20T13:40:33.537Z,18.14
2022-09-20T13:43:22.658Z,18.12
2022-09-20T13:45:54.008Z,18.16
2022-09-20T13:48:26.203Z,18.58
2022-09-20T13:50:53.846Z,18.83
2022-09-20T13:53:40.181Z,18.75
2022-09-20T13:56:18.663Z,18.63
2022-09-20T13:58:45.233Z,19.28
2022-09-20T14:01:29.321Z,18.86
2022-09-20T14:04:03.579Z,18.96
2022-09-20T14:06:31.705Z,19.08
2022-09-20T14:09:01.851Z,19.09
2022-09-20T14:11:33.668Z,18.83
2022-09-20T14:14:02.910Z,18.55
2022-09-20T14:16:31.643Z,18.67
2022-09-20T14:18:59.563Z,18.28
2022-09-20T14:21:28.968Z,18.29
2022-09-20T14:24:02.563Z,18.43
2022-09-20T14:26:33.594Z,18.28
2022-09-20T14:29:39.908Z,18.16
2022-09-20T14:32:20.281Z,18.09
2022-09-20T14:34:52.452Z,18.78
2022-09-20T14:37:27.324Z,18.70
2022-09-20T14:39:56.891Z,18.71
2022-09-20T14:42:40.768Z,18.08
2022-09-20T14:45:08.096Z,17.75
2022-09-20T14:47:40.038Z,17.36
2022-09-20T14:50:29.721Z,17.58
2022-09-20T14:53:02.923Z,17.56
2022-09-20T14:55:36.447Z,17.64
2022-09-20T14:58:22.088Z,17.77
2022-09-20T15:00:48.515Z,17.75
2022-09-20T15:03:19.169Z,17.61
2022-09-20T15:05:48.698Z,17.47
2022-09-20T15:08:15.612Z,17.33
2022-09-20T15:10:42.006Z,17.12
2022-09-20T15:13:11.820Z,16.98
2022-09-20T15:15:38.647Z,16.64
2022-09-20T15:18:27.061Z,16.60
2022-09-20T15:20:54.898Z,16.46
2022-09-20T15:23:21.793Z,16.32
2022-09-20T15:25:53.153Z,16.32
2022-09-20T15:28:20.380Z,16.46
2022-09-20T15:30:50.313Z,16.37
2022-09-20T15:33:18.359Z,16.45
2022-09-20T15:35:45.606Z,16.40
2022-09-20T15:38:13.948Z,16.35
2022-09-20T15:40:46.413Z,16.39
2022-09-20T15:43:17.918Z,16.24
2022-09-20T15:45:50.173Z,16.27
2022-09-20T15:48:22.299Z,16.22
2022-09-20T15:50:58.509Z,16.21
2022-09-20T15:53:25.151Z,16.13
2022-09-20T15:55:52.143Z,16.10
2022-09-20T15:58:18.484Z,15.98
2022-09-20T16:00:45.819Z,15.89
2022-09-20T16:03:12.532Z,15.90
2022-09-20T16:05:38.932Z,15.78
2022-09-20T16:08:05.298Z,15.88
2022-09-20T16:10:32.667Z,15.86
2022-09-20T16:12:58.992Z,15.81
2022-09-20T16:15:25.379Z,15.73
2022-09-20T16:18:10.147Z,15.80
2022-09-20T16:20:36.498Z,15.86
2022-09-20T16:23:02.890Z,15.91
2022-09-20T16:25:29.259Z,15.84
2022-09-20T16:27:55.632Z,15.81
2022-09-20T16:30:21.990Z,15.84
2022-09-20T16:32:48.418Z,15.76
2022-09-20T16:35:16.697Z,15.64
2022-09-20T16:37:43.055Z,15.57
2022-09-20T16:40:11.212Z,15.62
2022-09-20T16:42:38.067Z,15.52
2022-09-20T16:45:04.795Z,15.47
2022-09-20T16:47:31.375Z,15.42
2022-09-20T16:49:58.232Z,15.29
2022-09-20T16:52:26.439Z,15.29
2022-09-20T16:54:52.879Z,15.20
2022-09-20T16:57:19.400Z,15.15
2022-09-20T16:59:46.518Z,15.11
2022-09-20T17:02:13.313Z,15.04
2022-09-20T17:04:40.181Z,14.97
2022-09-20T17:07:07.592Z,14.90
2022-09-20T17:09:34.034Z,14.84
2022-09-20T17:12:01.329Z,14.80
2022-09-20T17:14:27.714Z,14.72
2022-09-20T17:16:56.410Z,14.55
2022-09-20T17:19:22.816Z,14.46
2022-09-20T17:21:50.727Z,14.38
2022-09-20T17:24:21.686Z,14.26
2022-09-20T17:26:50.427Z,14.29
2022-09-20T17:29:18.995Z,14.19
2022-09-20T17:31:53.924Z,14.18
2022-09-20T17:34:21.869Z,14.09
2022-09-20T17:36:49.105Z,14.00
2022-09-20T17:39:16.080Z,13.87
2022-09-20T17:41:45.167Z,13.75
2022-09-20T17:44:12.293Z,13.69
2022-09-20T17:46:40.840Z,13.68
2022-09-20T17:49:12.669Z,13.63
2022-09-20T17:51:41.307Z,13.67
2022-09-20T17:54:08.387Z,13.63
2022-09-20T17:56:35.701Z,13.63
2022-09-20T17:59:04.133Z,13.54
2022-09-20T18:01:32.153Z,13.51
2022-09-20T18:04:00.268Z,13.46
2022-09-20T18:06:29.334Z,13.37
2022-09-20T18:08:58.471Z,13.36
2022-09-20T18:11:46.328Z,13.31
2022-09-20T18:14:13.477Z,13.30
2022-09-20T18:16:40.368Z,13.15
2022-09-20T18:19:08.143Z,13.14
2022-09-20T18:21:37.166Z,13.12
2022-09-20T18:24:08.390Z,13.07
2022-09-20T18:26:35.932Z,13.13
2022-09-20T18:29:11.236Z,13.08
2022-09-20T18:31:49.774Z,12.98
2022-09-20T18:34:21.245Z,12.92
2022-09-20T18:36:53.307Z,12.89
2022-09-20T18:39:24.249Z,12.89
2022-09-20T18:41:51.427Z,12.82
2022-09-20T18:44:20.598Z,12.78
2022-09-20T18:46:47.056Z,12.79
2022-09-20T18:49:16.245Z,12.75
2022-09-20T18:51:43.876Z,12.75
2022-09-20T18:54:11.763Z,12.68
2022-09-20T18:56:40.387Z,12.55
2022-09-20T18:59:13.268Z,12.43
2022-09-20T19:01:57.914Z,12.50
2022-09-20T19:04:46.349Z,12.45
2022-09-20T19:07:27.909Z,12.39
2022-09-20T19:10:06.582Z,12.32
2022-09-20T19:12:43.901Z,12.20
2022-09-20T19:15:13.288Z,12.17
2022-09-20T19:18:11.202Z,12.18
2022-09-20T19:20:47.897Z,12.13
2022-09-20T19:23:33.548Z,12.10
2022-09-20T19:26:22.488Z,12.14
2022-09-20T19:28:51.051Z,12.12
2022-09-20T19:31:43.950Z,12.07
2022-09-20T19:34:17.865Z,12.05
2022-09-20T19:36:50.249Z,12.00
2022-09-20T19:39:45.607Z,11.98
2022-09-20T19:42:31.969Z,11.95
2022-09-20T19:45:19.298Z,12.01
2022-09-20T19:47:59.241Z,12.02
2022-09-20T19:50:41.300Z,11.98
2022-09-20T19:53:09.401Z,11.94
2022-09-20T19:55:36.927Z,11.96
2022-09-20T19:58:04.714Z,11.90
2022-09-20T20:00:31.480Z,11.89
2022-09-20T20:02:58.686Z,11.92
2022-09-20T20:05:27.390Z,11.96
2022-09-20T20:07:56.887Z,11.85
2022-09-20T20:10:43.696Z,11.92
2022-09-20T20:13:38.374Z,11.87
2022-09-20T20:16:11.542Z,11.87
2022-09-20T20:19:14.878Z,11.97
2022-09-20T20:21:54.090Z,11.96
2022-09-20T20:24:35.502Z,11.95
2022-09-20T20:27:01.914Z,11.95
2022-09-20T20:29:28.296Z,11.89
2022-09-20T20:31:54.698Z,11.98
2022-09-20T20:34:21.098Z,11.97
2022-09-20T20:36:48.227Z,11.92
2022-09-20T20:39:15.773Z,11.97
2022-09-20T20:41:43.303Z,11.94
2022-09-20T20:44:09.720Z,11.92
2022-09-20T20:46:37.088Z,11.87
2022-09-20T20:49:03.916Z,11.91
2022-09-20T20:51:32.359Z,11.90
2022-09-20T20:53:59.148Z,11.86
2022-09-20T20:56:28.611Z,11.94
2022-09-20T20:59:00.701Z,11.91
2022-09-20T21:01:38.458Z,11.95
2022-09-20T21:04:06.512Z,11.98
2022-09-20T21:06:35.697Z,11.99
2022-09-20T21:09:04.509Z,11.97
2022-09-20T21:11:33.509Z,11.92
2022-09-20T21:14:01.723Z,11.89
2022-09-20T21:16:35.179Z,11.90
2022-09-20T21:19:02.643Z,11.96
2022-09-20T21:21:35.099Z,11.93
2022-09-20T21:24:04.924Z,11.94
2022-09-20T21:26:32.899Z,11.94
2022-09-20T21:29:07.163Z,11.94
2022-09-20T21:31:36.747Z,11.93
2022-09-20T21:34:07.914Z,11.92
2022-09-20T21:36:35.794Z,11.91
2022-09-20T21:39:02.604Z,11.93
2022-09-20T21:41:31.716Z,11.91
2022-09-20T21:44:00.169Z,11.91
2022-09-20T21:46:31.210Z,11.89
2022-09-20T21:48:59.393Z,11.89
2022-09-20T21:51:29.707Z,11.84
2022-09-20T21:53:58.014Z,11.90
2022-09-20T21:56:27.502Z,11.91
2022-09-20T21:58:54.281Z,11.88
2022-09-20T22:01:23.694Z,11.86
2022-09-20T22:03:52.587Z,11.83
2022-09-20T22:06:21.196Z,11.81
2022-09-20T22:08:51.639Z,11.76
2022-09-20T22:11:20.083Z,11.75
2022-09-20T22:13:50.896Z,11.77
2022-09-20T22:16:20.334Z,11.74
2022-09-20T22:18:47.017Z,11.71
2022-09-20T22:21:25.166Z,11.69
2022-09-20T22:23:56.174Z,11.71
2022-09-20T22:26:23.254Z,11.72
2022-09-20T22:28:49.914Z,11.69
2022-09-20T22:31:22.313Z,11.67
2022-09-20T22:33:51.874Z,11.62
2022-09-20T22:36:21.136Z,11.57
2022-09-20T22:38:47.519Z,11.52
2022-09-20T22:41:16.200Z,11.48
2022-09-20T22:43:42.920Z,11.49
2022-09-20T22:46:12.281Z,11.53
2022-09-20T22:48:39.657Z,11.48
2022-09-20T22:51:08.801Z,11.47
2022-09-20T22:53:35.732Z,11.51
2022-09-20T22:56:06.523Z,11.51
2022-09-20T22:58:37.603Z,11.50
2022-09-20T23:01:08.502Z,11.55
2022-09-20T23:03:35.315Z,11.57
2022-09-20T23:06:03.143Z,11.56
2022-09-20T23:08:33.103Z,11.54
2022-09-20T23:11:03.887Z,11.56
2022-09-20T23:13:30.318Z,11.56
2022-09-20T23:15:56.753Z,11.55
2022-09-20T23:18:23.498Z,11.55
2022-09-20T23:20:58.693Z,11.57
2022-09-20T23:23:25.276Z,11.58
2022-09-20T23:25:55.062Z,11.58
2022-09-20T23:28:23.197Z,11.60
2022-09-20T23:30:49.663Z,11.60
2022-09-20T23:33:16.096Z,11.60
2022-09-20T23:35:46.556Z,11.56
2022-09-20T23:38:14.363Z,11.56
2022-09-20T23:40:40.794Z,11.60
2022-09-20T23:43:07.178Z,11.67
2022-09-20T23:45:33.632Z,11.65
2022-09-20T23:48:00.009Z,11.62
2022-09-20T23:50:26.552Z,11.71
2022-09-20T23:52:52.945Z,11.67
2022-09-20T23:55:19.355Z,11.67
2022-09-20T23:57:45.730Z,11.72
